Time;durP1;ratioP1;P1;durP2;ratioP2;P2;SDS_P1;SDS_P2;PMS_P1;PMS_P2;Temp;Humidity;BMP_temperature;BMP_pressure;BME280_temperature;BME280_humidity;BME280_pressure;Samples;Min_cycle;Max_cycle;Signal;HPM_P1;HPM_P2
2023/03/09 00:00:39;;;;;;;29.38;17.42;;;;;;;7.68;63.65;98834.34;5073022;28;20032;-70
2023/03/09 00:03:04;;;;;;;41.20;19.08;;;;;;;7.81;63.28;98829.75;5072412;28;20025;-70
2023/03/09 00:05:30;;;;;;;29.13;18.38;;;;;;;8.13;62.87;98832.25;5056135;28;20029;-70
2023/03/09 00:07:55;;;;;;;27.80;16.40;;;;;;;8.32;62.12;98828.22;5051825;28;20036;-70
2023/03/09 00:10:22;;;;;;;26.92;16.10;;;;;;;8.54;60.90;98833.53;5052325;28;20036;-70
2023/03/09 00:12:47;;;;;;;30.35;17.70;;;;;;;8.09;61.49;98843.22;5053712;28;20495;-70
2023/03/09 00:15:13;;;;;;;34.47;22.13;;;;;;;7.90;62.39;98826.91;5061653;28;20079;-71
2023/03/09 00:17:38;;;;;;;32.50;20.85;;;;;;;8.02;62.01;98831.78;5070849;28;20040;-70
2023/03/09 00:20:17;;;;;;;26.33;16.65;;;;;;;7.73;62.49;98833.34;5072098;28;20104;-70
2023/03/09 00:22:51;;;;;;;26.60;15.18;;;;;;;7.97;62.31;98821.66;5056667;28;20648;-70
2023/03/09 00:25:17;;;;;;;26.38;15.38;;;;;;;8.12;61.78;98813.91;5050693;28;20035;-70
2023/03/09 00:27:42;;;;;;;26.02;16.02;;;;;;;8.13;61.55;98815.53;5050669;28;20025;-71
2023/03/09 00:30:09;;;;;;;27.10;16.45;;;;;;;7.78;62.63;98818.44;5053756;28;20032;-70
2023/03/09 00:32:35;;;;;;;24.83;16.63;;;;;;;7.85;63.02;98813.19;5071737;28;20028;-71
2023/03/09 00:35:01;;;;;;;29.60;17.77;;;;;;;7.90;63.08;98809.38;5060737;28;20202;-71
2023/03/09 00:37:26;;;;;;;28.90;18.88;;;;;;;7.68;63.93;98806.50;5051873;28;20036;-70
2023/03/09 00:39:52;;;;;;;30.70;18.17;;;;;;;7.94;63.58;98805.59;5050479;28;20025;-70
2023/03/09 00:42:17;;;;;;;29.02;17.60;;;;;;;8.12;62.54;98806.34;5052412;28;20107;-70
2023/03/09 00:44:43;;;;;;;28.55;17.65;;;;;;;8.09;62.57;98807.03;5061583;28;20079;-71
2023/03/09 00:47:08;;;;;;;31.73;18.20;;;;;;;7.73;63.13;98803.56;5068034;28;20036;-71
2023/03/09 00:49:34;;;;;;;32.83;16.90;;;;;;;7.69;63.40;98804.56;5070250;28;20032;-71
2023/03/09 00:51:59;;;;;;;30.52;17.25;;;;;;;7.77;63.62;98803.69;5062281;28;20108;-70
2023/03/09 00:54:25;;;;;;;23.92;15.75;;;;;;;7.91;63.11;98800.69;5055355;28;20487;-70
2023/03/09 00:56:50;;;;;;;25.48;15.85;;;;;;;7.94;62.75;98788.88;5071496;28;20112;-70
2023/03/09 00:59:15;;;;;;;25.60;16.00;;;;;;;7.85;62.60;98790.91;5071374;28;20032;-70
2023/03/09 01:01:41;;;;;;;22.77;14.40;;;;;;;7.99;62.65;98797.06;5059615;28;20091;-70
2023/03/09 01:04:07;;;;;;;24.15;15.52;;;;;;;8.14;62.43;98792.09;5051310;28;20060;-70
2023/03/09 01:06:32;;;;;;;22.85;14.80;;;;;;;8.08;62.02;98785.88;5051256;28;20078;-70
2023/03/09 01:08:57;;;;;;;22.38;14.15;;;;;;;8.08;62.35;98785.88;5051368;28;20021;-70
2023/03/09 01:11:24;;;;;;;21.15;12.43;;;;;;;8.11;61.96;98784.41;5051378;28;20025;-70
2023/03/09 01:13:51;;;;;;;23.90;13.48;;;;;;;8.10;61.71;98785.56;5051289;28;20025;-70
2023/03/09 01:16:17;;;;;;;19.95;11.52;;;;;;;8.28;61.04;98780.72;5061491;28;20040;-70
2023/03/09 01:18:43;;;;;;;15.95;9.63;;;;;;;8.23;60.59;98781.72;5069481;28;20040;-70
2023/03/09 01:21:09;;;;;;;15.38;8.75;;;;;;;8.19;60.56;98775.16;5068720;28;20033;-70
2023/03/09 01:23:39;;;;;;;15.23;9.75;;;;;;;8.18;60.80;98773.53;5071120;28;20112;-70
2023/03/09 01:26:07;;;;;;;14.07;9.52;;;;;;;8.32;60.33;98769.69;5069537;28;20098;-70
2023/03/09 01:28:34;;;;;;;16.27;9.90;;;;;;;8.07;60.69;98770.34;5071273;28;20024;-71
2023/03/09 01:31:00;;;;;;;14.40;7.57;;;;;;;7.84;62.08;98770.59;5067340;28;20116;-71
2023/03/09 01:33:26;;;;;;;15.13;8.88;;;;;;;8.00;61.06;98759.72;5070557;28;20483;-72
2023/03/09 01:35:51;;;;;;;18.70;8.82;;;;;;;8.20;60.78;98759.28;5068073;28;20020;-70
2023/03/09 01:38:17;;;;;;;13.30;8.63;;;;;;;8.26;60.63;98755.13;5071019;28;20066;-71
2023/03/09 01:40:45;;;;;;;17.42;9.55;;;;;;;8.23;60.53;98756.66;5071050;28;20028;-71
2023/03/09 01:43:34;;;;;;;13.57;8.80;;;;;;;8.21;60.53;98760.91;5069762;28;20027;-71
2023/03/09 01:46:24;;;;;;;11.45;9.05;;;;;;;8.08;61.22;98760.81;5054568;28;20029;-70
2023/03/09 01:49:14;;;;;;;15.15;8.48;;;;;;;8.00;61.30;98745.78;5050347;28;20025;-71
2023/03/09 01:51:46;;;;;;;13.25;7.95;;;;;;;7.97;61.17;98751.22;5055836;28;20052;-70
2023/03/09 01:54:19;;;;;;;13.25;8.23;;;;;;;8.10;60.38;98752.13;5070480;28;20189;-71
2023/03/09 01:56:46;;;;;;;19.88;10.23;;;;;;;8.04;61.07;98743.16;5069637;28;20047;-70
2023/03/09 01:59:12;;;;;;;19.08;11.02;;;;;;;7.74;61.99;98740.34;5070914;28;20491;-70
2023/03/09 02:01:40;;;;;;;20.02;11.93;;;;;;;7.59;62.40;98736.13;5067819;28;20020;-70
2023/03/09 02:04:11;;;;;;;15.25;8.80;;;;;;;7.57;63.19;98730.91;5069261;28;20078;-71
2023/03/09 02:06:37;;;;;;;11.63;8.15;;;;;;;7.63;62.40;98733.50;5050683;28;20099;-70
2023/03/09 02:09:32;;;;;;;13.02;7.85;;;;;;;6.94;65.03;98736.13;5048969;28;20047;-71
2023/03/09 02:11:58;;;;;;;13.20;9.82;;;;;;;6.77;65.98;98737.78;5050459;28;20068;-70
2023/03/09 02:14:25;;;;;;;21.30;10.38;;;;;;;6.81;66.52;98751.81;5049188;28;20109;-70
2023/03/09 02:16:50;;;;;;;16.15;9.65;;;;;;;6.62;67.30;98747.41;5055122;28;20432;-70
2023/03/09 02:19:26;;;;;;;18.45;10.40;;;;;;;6.87;66.29;98731.88;5070617;28;20027;-70
2023/03/09 02:21:54;;;;;;;13.38;9.25;;;;;;;7.01;66.36;98725.34;5061256;28;20522;-71
2023/03/09 02:24:25;;;;;;;15.20;9.70;;;;;;;6.89;66.99;98709.31;5050457;28;20028;-70
2023/03/09 02:26:56;;;;;;;19.73;10.25;;;;;;;7.21;65.39;98712.69;5048946;28;20025;-70
2023/03/09 02:29:21;;;;;;;12.32;8.55;;;;;;;7.19;66.03;98719.72;5050545;28;20036;-70
2023/03/09 02:31:47;;;;;;;12.15;7.70;;;;;;;7.37;65.10;98714.94;5056431;28;20025;-70
2023/03/09 02:34:12;;;;;;;13.10;9.15;;;;;;;7.50;64.51;98711.13;5072818;28;20021;-72
2023/03/09 02:36:38;;;;;;;14.13;10.10;;;;;;;7.49;64.43;98712.28;5053033;28;20035;-70
2023/03/09 02:39:40;;;;;;;17.67;8.95;;;;;;;7.53;64.55;98696.53;5054220;28;20021;-71
2023/03/09 02:42:06;;;;;;;17.25;9.50;;;;;;;7.25;65.67;98687.81;5048913;28;20033;-72
2023/03/09 02:44:33;;;;;;;17.48;11.68;;;;;;;6.67;66.43;98704.75;5056441;28;20132;-70
2023/03/09 02:47:07;;;;;;;16.58;12.07;;;;;;;6.01;69.21;98714.78;5070829;28;20025;-70
2023/03/09 02:49:33;;;;;;;13.63;9.77;;;;;;;6.49;67.55;98710.31;5073275;28;20024;-70
2023/03/09 02:51:58;;;;;;;15.38;10.40;;;;;;;6.78;66.58;98711.63;5073783;28;20062;-70
2023/03/09 02:54:24;;;;;;;16.10;10.50;;;;;;;6.18;68.78;98712.06;5073513;28;20487;-70
2023/03/09 02:56:49;;;;;;;17.42;10.25;;;;;;;6.29;67.78;98708.97;5073735;28;20190;-70
2023/03/09 02:59:15;;;;;;;11.38;7.63;;;;;;;6.20;67.46;98716.47;5073733;28;20036;-70
2023/03/09 03:01:40;;;;;;;10.68;7.13;;;;;;;6.36;66.78;98716.84;5055965;28;20032;-71
2023/03/09 03:04:06;;;;;;;11.23;7.68;;;;;;;6.40;66.63;98729.75;5055693;28;20041;-70
2023/03/09 03:06:31;;;;;;;10.82;7.25;;;;;;;6.30;66.48;98730.88;5072091;28;20036;-70
2023/03/09 03:08:56;;;;;;;9.73;7.32;;;;;;;6.19;66.89;98735.13;5072349;28;20411;-70
2023/03/09 03:11:22;;;;;;;11.45;7.25;;;;;;;6.28;66.57;98721.25;5072080;28;20020;-70
2023/03/09 03:13:47;;;;;;;12.35;8.10;;;;;;;5.89;68.03;98720.94;5053601;28;20118;-70
2023/03/09 03:16:13;;;;;;;17.02;8.57;;;;;;;6.01;67.89;98714.78;5052838;28;20041;-70
2023/03/09 03:18:38;;;;;;;11.50;7.63;;;;;;;6.03;68.17;98712.53;5070461;28;20033;-70
2023/03/09 03:21:04;;;;;;;21.10;9.27;;;;;;;6.11;68.37;98724.78;5068134;28;20040;-70
2023/03/09 03:23:29;;;;;;;17.20;10.70;;;;;;;6.29;67.40;98745.91;5072025;28;20029;-70
2023/03/09 03:25:55;;;;;;;13.13;9.90;;;;;;;6.58;67.09;98743.66;5072844;28;20102;-70
2023/03/09 03:28:21;;;;;;;13.10;8.77;;;;;;;6.81;66.40;98741.53;5073341;28;20546;-70
2023/03/09 03:30:51;;;;;;;21.23;11.77;;;;;;;6.82;65.51;98759.03;5069145;28;20024;-70
2023/03/09 03:33:16;;;;;;;11.70;8.70;;;;;;;6.46;66.26;98749.84;5067557;28;20024;-70
2023/03/09 03:35:42;;;;;;;12.32;9.43;;;;;;;5.97;68.12;98764.59;5062650;28;20039;-70
2023/03/09 03:38:08;;;;;;;14.32;10.25;;;;;;;5.82;69.16;98765.81;5073035;28;20025;-70
2023/03/09 03:40:33;;;;;;;13.55;10.25;;;;;;;5.47;70.85;98751.78;5072966;28;20044;-70
2023/03/09 03:42:59;;;;;;;12.85;9.52;;;;;;;5.53;70.47;98752.47;5070464;28;20040;-70
2023/03/09 03:45:25;;;;;;;14.30;10.35;;;;;;;5.68;70.58;98760.41;5068063;28;20087;-70
2023/03/09 03:47:51;;;;;;;20.08;13.45;;;;;;;5.86;69.57;98749.34;5052284;28;20484;-70
2023/03/09 03:50:16;;;;;;;13.80;11.00;;;;;;;5.99;68.73;98745.63;5054389;28;20067;-71
2023/03/09 03:52:42;;;;;;;15.80;9.88;;;;;;;5.89;68.63;98759.81;5071747;28;20479;-70
2023/03/09 03:55:08;;;;;;;15.57;9.65;;;;;;;6.01;68.33;98767.53;5069907;28;20021;-70
2023/03/09 03:57:33;;;;;;;14.63;9.23;;;;;;;6.13;68.13;98770.53;5064699;28;20028;-71
2023/03/09 03:59:58;;;;;;;14.20;10.35;;;;;;;5.92;68.70;98761.13;5071334;28;20039;-70
2023/03/09 04:02:24;;;;;;;24.63;15.38;;;;;;;5.92;68.95;98767.53;5060008;28;20032;-70
2023/03/09 04:04:49;;;;;;;27.10;15.82;;;;;;;5.78;69.29;98766.78;5051180;28;20032;-71
2023/03/09 04:07:15;;;;;;;24.02;16.98;;;;;;;5.88;69.38;98769.28;5053022;28;20043;-70
2023/03/09 04:09:40;;;;;;;20.40;14.55;;;;;;;6.07;68.36;98751.59;5071370;28;20574;-71
2023/03/09 04:12:07;;;;;;;15.85;10.18;;;;;;;6.34;67.62;98763.56;5070729;28;20024;-71
2023/03/09 04:14:36;;;;;;;18.70;9.48;;;;;;;6.43;66.73;98761.63;5068133;28;20102;-71
2023/03/09 04:17:02;;;;;;;26.45;10.07;;;;;;;6.53;66.74;98761.31;5051280;28;20035;-70
2023/03/09 04:19:27;;;;;;;13.82;9.10;;;;;;;6.62;66.16;98757.69;5071147;28;20111;-70
2023/03/09 04:21:53;;;;;;;14.43;9.10;;;;;;;6.75;65.91;98767.84;5063473;28;20090;-70
2023/03/09 04:24:18;;;;;;;13.18;9.30;;;;;;;6.76;66.03;98763.94;5050271;28;20024;-70
2023/03/09 04:26:44;;;;;;;17.88;10.75;;;;;;;6.47;67.19;98759.81;5067712;28;20036;-70
2023/03/09 04:29:09;;;;;;;18.90;10.45;;;;;;;5.98;69.41;98769.00;5070775;28;20028;-70
2023/03/09 04:31:35;;;;;;;25.25;12.43;;;;;;;6.20;68.53;98753.41;5067419;28;20059;-70
2023/03/09 04:34:00;;;;;;;17.40;10.73;;;;;;;6.45;67.47;98751.00;5054073;28;20505;-71
2023/03/09 04:36:26;;;;;;;21.90;10.50;;;;;;;6.53;67.10;98752.97;5064245;28;20441;-70
2023/03/09 04:38:52;;;;;;;16.38;9.88;;;;;;;6.59;66.80;98754.44;5070592;28;20024;-70
2023/03/09 04:41:17;;;;;;;29.05;12.20;;;;;;;6.60;66.85;98755.28;5070018;28;20032;-70
2023/03/09 04:43:43;;;;;;;34.33;12.05;;;;;;;6.75;66.18;98753.94;5071741;28;20151;-70
2023/03/09 04:46:08;;;;;;;20.60;9.10;;;;;;;6.80;66.36;98751.03;5061738;28;20128;-70
2023/03/09 04:48:34;;;;;;;21.23;10.60;;;;;;;6.86;65.87;98749.69;5058989;28;20420;-70
2023/03/09 04:50:59;;;;;;;22.63;11.02;;;;;;;6.94;65.26;98755.59;5050337;28;20021;-70
2023/03/09 04:53:25;;;;;;;26.17;11.52;;;;;;;6.99;65.12;98759.03;5068223;28;20033;-70
2023/03/09 04:55:50;;;;;;;20.33;12.52;;;;;;;6.73;65.04;98767.34;5071259;28;20103;-71
2023/03/09 04:58:16;;;;;;;40.42;21.73;;;;;;;6.20;67.96;98764.53;5056754;28;20048;-71
2023/03/09 05:00:41;;;;;;;40.67;21.85;;;;;;;6.51;67.48;98758.00;5051626;28;20495;-71
2023/03/09 05:03:07;;;;;;;74.78;42.92;;;;;;;6.46;67.82;98766.53;5064955;28;20020;-70
2023/03/09 05:05:32;;;;;;;56.53;29.05;;;;;;;6.39;67.42;98774.50;5070443;28;20021;-70
2023/03/09 05:07:57;;;;;;;46.33;26.15;;;;;;;6.40;67.38;98770.63;5070052;28;20024;-70
2023/03/09 05:10:23;;;;;;;54.63;23.98;;;;;;;6.18;68.47;98769.59;5057829;28;20024;-70
2023/03/09 05:12:48;;;;;;;28.27;15.32;;;;;;;6.23;68.21;98758.31;5068389;28;20021;-70
2023/03/09 05:15:14;;;;;;;28.05;12.65;;;;;;;6.25;67.25;98763.56;5068595;28;20051;-70
2023/03/09 05:17:39;;;;;;;33.95;14.50;;;;;;;6.48;66.70;98755.91;5072026;28;20498;-70
2023/03/09 05:20:09;;;;;;;25.92;12.65;;;;;;;6.41;66.23;98745.28;5064744;28;20032;-70
2023/03/09 05:22:35;;;;;;;29.10;11.95;;;;;;;6.65;66.94;98741.19;5069885;28;20025;-70
2023/03/09 05:25:00;;;;;;;33.95;14.13;;;;;;;6.97;65.63;98741.03;5076943;28;20031;-70
2023/03/09 05:27:26;;;;;;;48.63;19.30;;;;;;;6.54;66.63;98743.50;5067324;28;20021;-70
2023/03/09 05:29:53;;;;;;;36.15;14.27;;;;;;;6.67;66.73;98743.66;5064006;28;20027;-70
2023/03/09 05:32:18;;;;;;;27.38;9.20;;;;;;;6.80;66.09;98748.25;5060800;28;20434;-69
2023/03/09 05:34:45;;;;;;;14.30;8.30;;;;;;;6.44;66.46;98749.38;5053720;28;20016;-71
2023/03/09 05:37:11;;;;;;;16.00;9.25;;;;;;;6.60;66.48;98750.50;5062925;28;20071;-69
2023/03/09 05:39:39;;;;;;;15.73;8.77;;;;;;;6.79;65.41;98756.88;5064060;28;20028;-71
2023/03/09 05:42:05;;;;;;;32.38;16.65;;;;;;;6.90;65.60;98751.84;5061709;28;20024;-73
2023/03/09 05:44:31;;;;;;;28.30;11.75;;;;;;;6.96;65.19;98750.50;5059708;28;20035;-70
2023/03/09 05:46:57;;;;;;;29.45;9.40;;;;;;;7.28;64.45;98751.94;5067874;28;20033;-70
2023/03/09 05:49:24;;;;;;;14.05;7.75;;;;;;;7.27;64.07;98746.72;5062088;28;20285;-73
2023/03/09 05:51:49;;;;;;;18.58;9.38;;;;;;;7.63;63.87;98744.63;5067334;28;20024;-72
2023/03/09 05:54:16;;;;;;;43.75;11.55;;;;;;;7.54;64.66;98747.44;5071035;28;20036;-71
2023/03/09 05:56:42;;;;;;;30.08;11.43;;;;;;;7.98;64.24;98748.09;5067476;28;20020;-73
2023/03/09 05:59:08;;;;;;;17.77;11.02;;;;;;;7.93;63.64;98753.84;5063666;28;20044;-72
2023/03/09 06:01:33;;;;;;;21.13;9.27;;;;;;;7.64;66.83;98763.78;5066502;28;20024;-72
2023/03/09 06:03:59;;;;;;;23.17;11.93;;;;;;;7.54;68.88;98764.16;5065692;28;20411;-73
2023/03/09 06:06:24;;;;;;;32.85;12.52;;;;;;;7.83;68.71;98757.81;5053607;28;20143;-72
2023/03/09 06:08:50;;;;;;;26.45;11.25;;;;;;;8.05;66.71;98760.66;5060586;28;20033;-71
2023/03/09 06:11:16;;;;;;;16.85;10.00;;;;;;;8.15;66.13;98760.28;5060766;28;20025;-69
2023/03/09 06:13:42;;;;;;;18.02;8.77;;;;;;;8.49;64.79;98760.41;5059756;28;20039;-71
2023/03/09 06:16:13;;;;;;;22.30;8.32;;;;;;;8.69;63.18;98756.84;5085881;28;20498;-72
2023/03/09 06:18:39;;;;;;;21.85;9.32;;;;;;;9.01;62.76;98767.59;5073330;28;20035;-70
2023/03/09 06:21:06;;;;;;;20.55;9.68;;;;;;;9.08;60.98;98761.44;5062230;28;20025;-71
2023/03/09 06:23:35;;;;;;;21.10;10.88;;;;;;;9.47;60.65;98764.03;5085742;28;20032;-71
2023/03/09 06:26:02;;;;;;;26.52;9.40;;;;;;;9.35;59.46;98760.03;5065221;28;20116;-74
2023/03/09 06:28:28;;;;;;;20.75;8.60;;;;;;;9.32;60.89;98760.75;5072028;28;20031;-73
2023/03/09 06:30:53;;;;;;;12.77;7.40;;;;;;;9.54;60.14;98761.50;5055659;28;20028;-73
2023/03/09 06:33:18;;;;;;;11.00;6.53;;;;;;;9.63;59.49;98756.59;5064092;28;20029;-73
2023/03/09 06:35:44;;;;;;;15.30;6.53;;;;;;;9.77;59.30;98761.06;5057255;28;20030;-73
2023/03/09 06:38:10;;;;;;;10.65;6.40;;;;;;;9.53;58.36;98762.63;5065660;28;20036;-73
2023/03/09 06:40:35;;;;;;;20.30;7.82;;;;;;;9.39;60.27;98769.34;5066288;28;20094;-71
2023/03/09 06:43:01;;;;;;;14.23;7.95;;;;;;;9.40;60.76;98768.19;5086327;28;20032;-70
2023/03/09 06:45:26;;;;;;;17.17;7.50;;;;;;;9.23;61.90;98758.03;5070429;28;20025;-70
2023/03/09 06:47:56;;;;;;;9.13;6.15;;;;;;;9.19;65.73;98753.50;5073599;28;20032;-69
2023/03/09 06:50:23;;;;;;;9.75;7.25;;;;;;;9.26;67.12;98762.09;5071511;28;20035;-68
2023/03/09 06:52:48;;;;;;;22.65;8.05;;;;;;;9.12;65.12;98762.41;5060480;28;20460;-70
2023/03/09 06:55:14;;;;;;;15.25;7.55;;;;;;;9.22;64.85;98761.16;5067530;28;20043;-69
2023/03/09 06:57:40;;;;;;;12.95;8.63;;;;;;;9.25;66.56;98761.28;5086414;28;20065;-69
2023/03/09 07:00:07;;;;;;;15.10;6.78;;;;;;;9.39;62.87;98765.75;5070846;28;20415;-71
2023/03/09 07:02:33;;;;;;;17.48;10.43;;;;;;;9.31;67.44;98752.69;5059619;28;20028;-70
2023/03/09 07:04:58;;;;;;;16.65;8.35;;;;;;;9.37;68.55;98754.13;5056916;28;20028;-69
2023/03/09 07:07:24;;;;;;;15.25;8.15;;;;;;;9.33;68.22;98756.78;5066341;28;20036;-69
2023/03/09 07:09:50;;;;;;;21.70;9.73;;;;;;;9.47;68.70;98758.44;5072594;28;20035;-70
2023/03/09 07:12:15;;;;;;;10.43;6.47;;;;;;;9.44;68.62;98762.72;5068987;28;20028;-69
2023/03/09 07:14:41;;;;;;;8.40;6.00;;;;;;;9.51;67.36;98751.00;5059869;28;20049;-73
2023/03/09 07:17:12;;;;;;;15.02;6.10;;;;;;;9.53;65.22;98759.84;5059885;28;20040;-75
2023/03/09 07:19:38;;;;;;;12.73;7.05;;;;;;;9.69;64.56;98752.44;5066824;28;20039;-75
2023/03/09 07:22:04;;;;;;;9.52;5.55;;;;;;;9.65;63.87;98754.31;5070412;28;20048;-75
2023/03/09 07:24:29;;;;;;;9.02;6.55;;;;;;;9.62;63.81;98754.97;5067433;28;20029;-75
2023/03/09 07:26:55;;;;;;;15.88;7.60;;;;;;;9.66;64.03;98753.16;5061508;28;20024;-75
2023/03/09 07:29:20;;;;;;;17.80;8.25;;;;;;;9.79;64.84;98747.56;5068322;28;20475;-75
2023/03/09 07:31:46;;;;;;;12.70;7.18;;;;;;;9.90;64.49;98757.13;5068907;28;20434;-75
2023/03/09 07:34:11;;;;;;;12.73;7.20;;;;;;;9.94;63.66;98758.06;5064868;28;20100;-75
2023/03/09 07:36:37;;;;;;;8.55;6.35;;;;;;;10.02;60.76;98752.72;5069761;28;20035;-72
2023/03/09 07:39:03;;;;;;;10.75;6.28;;;;;;;10.04;60.75;98750.38;5069773;28;20021;-72
2023/03/09 07:41:28;;;;;;;11.48;7.15;;;;;;;10.02;63.24;98747.94;5066394;28;20024;-72
2023/03/09 07:43:54;;;;;;;11.60;6.28;;;;;;;10.22;62.19;98740.59;5058390;28;20032;-73
2023/03/09 07:46:19;;;;;;;12.40;6.80;;;;;;;10.28;60.97;98745.94;5059165;28;20463;-73
2023/03/09 07:48:45;;;;;;;9.68;6.45;;;;;;;10.34;60.09;98747.31;5063805;28;20028;-72
2023/03/09 07:51:12;;;;;;;12.40;6.20;;;;;;;10.70;58.79;98751.25;5071903;28;20440;-73
2023/03/09 07:53:39;;;;;;;8.30;6.18;;;;;;;10.63;59.79;98745.47;5082395;28;20120;-72
2023/03/09 07:56:06;;;;;;;14.50;7.20;;;;;;;10.90;59.43;98743.06;5068801;28;20451;-73
2023/03/09 07:58:33;;;;;;;12.52;6.32;;;;;;;10.86;58.80;98742.94;5058526;28;20048;-73
2023/03/09 08:00:59;;;;;;;9.90;5.32;;;;;;;10.87;58.29;98746.56;5055867;28;20028;-72
2023/03/09 08:03:26;;;;;;;11.68;5.85;;;;;;;11.14;59.10;98732.94;5064972;28;20024;-73
2023/03/09 08:05:55;;;;;;;18.63;6.97;;;;;;;11.24;59.56;98730.41;5069665;28;20043;-73
2023/03/09 08:08:27;;;;;;;21.27;6.70;;;;;;;11.20;58.50;98726.72;5058370;28;20025;-73
2023/03/09 08:10:54;;;;;;;8.48;4.85;;;;;;;11.35;58.41;98727.94;5059406;28;20082;-72
2023/03/09 08:13:21;;;;;;;8.63;5.55;;;;;;;11.60;58.25;98716.56;5063281;28;20410;-73
2023/03/09 08:15:47;;;;;;;9.13;5.50;;;;;;;11.89;57.11;98716.50;5069386;28;20059;-73
2023/03/09 08:18:13;;;;;;;9.23;4.90;;;;;;;12.35;55.64;98721.59;5053179;28;20029;-72
2023/03/09 08:20:39;;;;;;;9.05;5.65;;;;;;;12.44;54.68;98724.19;5059445;28;20033;-74
2023/03/09 08:23:05;;;;;;;12.02;6.00;;;;;;;12.54;54.84;98728.41;5075107;28;20022;-74
2023/03/09 08:25:30;;;;;;;14.93;6.53;;;;;;;12.51;54.48;98704.72;5078681;28;20119;-72
2023/03/09 08:27:56;;;;;;;12.52;6.00;;;;;;;12.65;54.92;98718.25;5071193;28;20028;-77
2023/03/09 08:30:22;;;;;;;10.32;6.68;;;;;;;12.67;55.45;98720.69;5071435;28;20127;-74
2023/03/09 08:32:48;;;;;;;15.32;8.27;;;;;;;12.81;56.30;98717.38;5067583;28;20044;-72
2023/03/09 08:35:21;;;;;;;16.58;7.32;;;;;;;12.68;56.80;98716.69;5056884;28;20032;-73
2023/03/09 08:37:47;;;;;;;22.83;9.15;;;;;;;12.68;56.91;98719.50;5059909;28;20033;-74
2023/03/09 08:40:14;;;;;;;25.70;9.75;;;;;;;12.92;56.14;98715.63;5063937;28;20067;-73
2023/03/09 08:42:40;;;;;;;13.35;6.65;;;;;;;13.04;54.42;98714.63;5070940;28;20115;-74
2023/03/09 08:45:07;;;;;;;11.10;6.45;;;;;;;13.14;54.24;98716.03;5068337;28;20559;-74
2023/03/09 08:47:33;;;;;;;9.10;6.15;;;;;;;13.04;52.85;98703.41;5058552;28;20060;-73
2023/03/09 08:49:59;;;;;;;10.05;5.70;;;;;;;13.19;52.84;98721.38;5069611;28;20032;-73
2023/03/09 08:52:25;;;;;;;14.27;5.82;;;;;;;13.44;52.51;98710.63;5067517;28;20032;-73
2023/03/09 08:54:51;;;;;;;13.57;7.13;;;;;;;13.75;51.52;98716.38;5050037;28;20111;-73
2023/03/09 08:57:17;;;;;;;15.60;7.60;;;;;;;13.93;50.78;98716.66;5069270;28;20502;-74
2023/03/09 08:59:46;;;;;;;26.67;8.65;;;;;;;14.11;50.30;98716.16;5068747;28;20131;-73
2023/03/09 09:02:14;;;;;;;45.75;8.45;;;;;;;14.16;49.54;98713.84;5067082;28;20025;-74
2023/03/09 09:04:43;;;;;;;14.25;7.75;;;;;;;14.32;49.06;98710.88;5069070;28;20120;-73
2023/03/09 09:07:10;;;;;;;20.20;11.45;;;;;;;14.31;47.98;98709.25;5086448;28;20028;-72
2023/03/09 09:09:36;;;;;;;27.52;10.10;;;;;;;14.45;48.97;98705.81;5069829;28;20039;-72
2023/03/09 09:12:02;;;;;;;16.63;7.72;;;;;;;14.60;48.97;98691.97;5066546;28;20530;-73
2023/03/09 09:14:28;;;;;;;17.92;7.07;;;;;;;14.56;46.86;98696.72;5065778;28;20025;-72
2023/03/09 09:16:53;;;;;;;9.90;6.22;;;;;;;14.76;45.86;98707.88;5065670;28;20032;-72
2023/03/09 09:19:20;;;;;;;14.25;5.43;;;;;;;14.98;46.35;98695.69;5063699;28;20055;-72
2023/03/09 09:21:45;;;;;;;14.43;5.18;;;;;;;15.25;45.61;98698.41;5064734;28;20404;-71
2023/03/09 09:24:11;;;;;;;25.45;8.68;;;;;;;15.31;40.64;98693.25;5071092;28;20388;-75
2023/03/09 09:26:36;;;;;;;7.70;3.67;;;;;;;15.36;37.99;98689.25;5070760;28;20153;-74
2023/03/09 09:29:02;;;;;;;12.35;5.15;;;;;;;15.35;38.25;98685.63;5068342;28;20459;-75
2023/03/09 09:31:28;;;;;;;8.13;4.55;;;;;;;15.53;38.64;98691.44;5063582;28;20040;-72
2023/03/09 09:33:54;;;;;;;6.22;4.55;;;;;;;15.26;37.79;98682.31;5062710;28;20020;-74
2023/03/09 09:36:20;;;;;;;9.02;4.53;;;;;;;15.56;39.64;98679.38;5067000;28;20404;-73
2023/03/09 09:38:46;;;;;;;6.20;4.25;;;;;;;15.58;38.90;98682.66;5084092;28;20043;-77
2023/03/09 09:41:12;;;;;;;5.28;3.38;;;;;;;15.64;38.45;98676.66;5060395;28;20109;-72
2023/03/09 09:43:39;;;;;;;5.90;2.97;;;;;;;15.64;38.46;98679.47;5053471;28;20037;-71
2023/03/09 09:46:09;;;;;;;7.22;3.65;;;;;;;15.86;38.07;98666.34;5049335;28;20430;-71
2023/03/09 09:48:36;;;;;;;9.77;4.95;;;;;;;16.21;38.03;98667.03;5063783;28;20064;-73
2023/03/09 09:51:30;;;;;;;4.75;3.50;;;;;;;16.36;36.75;98657.47;5067942;28;20087;-72
2023/03/09 09:54:16;;;;;;;5.85;2.92;;;;;;;16.25;37.00;98657.41;5054703;28;20136;-73
2023/03/09 09:56:48;;;;;;;11.20;2.53;;;;;;;16.10;35.32;98658.50;5052752;28;20846;-72
2023/03/09 09:59:32;;;;;;;5.55;4.20;;;;;;;16.15;35.40;98655.31;5061499;28;20028;-72
2023/03/09 10:02:09;;;;;;;4.78;3.83;;;;;;;16.54;35.27;98646.28;5069133;28;20028;-72
2023/03/09 10:04:46;;;;;;;7.63;4.35;;;;;;;16.41;34.89;98640.16;5054690;28;20024;-71
2023/03/09 10:07:17;;;;;;;6.47;5.53;;;;;;;16.37;35.90;98644.97;5063689;28;20067;-71
2023/03/09 10:09:48;;;;;;;10.98;5.43;;;;;;;16.61;37.14;98634.19;5079778;28;20029;-72
2023/03/09 10:12:16;;;;;;;10.32;6.20;;;;;;;16.93;36.26;98642.00;5047813;28;20491;-69
2023/03/09 10:15:27;;;;;;;5.05;4.30;;;;;;;16.72;36.46;98628.63;5049649;28;20541;-71
2023/03/09 10:18:03;;;;;;;5.80;4.70;;;;;;;16.58;36.80;98620.88;5049863;28;20534;-72
2023/03/09 10:20:44;;;;;;;5.45;4.18;;;;;;;16.82;37.86;98618.56;5065850;28;20479;-70
2023/03/09 10:23:31;;;;;;;8.52;3.72;;;;;;;16.93;36.68;98616.56;5065168;28;20098;-73
2023/03/09 10:26:16;;;;;;;6.53;4.38;;;;;;;17.11;36.23;98613.81;5060631;28;20036;-73
2023/03/09 10:28:44;;;;;;;8.27;4.68;;;;;;;16.82;35.56;98608.06;5048979;28;20036;-72
2023/03/09 10:31:17;;;;;;;8.13;4.60;;;;;;;16.88;37.50;98602.81;5051752;28;20600;-71
2023/03/09 10:33:45;;;;;;;7.60;5.25;;;;;;;16.79;36.63;98593.94;5067283;28;20151;-71
2023/03/09 10:36:30;;;;;;;5.07;4.57;;;;;;;16.69;36.24;98595.50;5051707;28;20021;-72
2023/03/09 10:39:01;;;;;;;7.85;4.78;;;;;;;16.74;36.69;98583.84;5052673;28;20110;-71
2023/03/09 10:41:27;;;;;;;9.70;5.28;;;;;;;17.09;36.93;98570.22;5060074;28;20120;-73
2023/03/09 10:43:56;;;;;;;6.20;4.35;;;;;;;17.10;37.57;98569.84;5065604;28;20093;-69
2023/03/09 10:46:24;;;;;;;10.75;4.60;;;;;;;17.04;38.38;98554.47;5059167;28;20032;-71
2023/03/09 10:49:06;;;;;;;6.28;4.20;;;;;;;16.89;39.80;98544.34;5061484;28;20085;-71
2023/03/09 10:51:45;;;;;;;10.05;4.82;;;;;;;17.05;38.29;98544.78;5061134;28;20036;-71
2023/03/09 10:54:27;;;;;;;12.10;4.43;;;;;;;17.36;37.65;98542.41;5066090;28;20044;-72
2023/03/09 10:56:53;;;;;;;8.02;3.65;;;;;;;17.41;38.79;98538.38;5066827;28;20036;-71
2023/03/09 10:59:21;;;;;;;4.57;3.72;;;;;;;17.47;38.86;98531.06;5064645;28;20349;-70
2023/03/09 11:01:51;;;;;;;3.55;3.22;;;;;;;17.50;38.75;98526.63;5071151;28;20033;-71
2023/03/09 11:04:23;;;;;;;14.32;3.33;;;;;;;17.82;37.90;98523.75;5068944;28;20036;-71
2023/03/09 11:07:20;;;;;;;8.25;3.63;;;;;;;18.18;37.64;98525.72;5063211;28;20112;-72
2023/03/09 11:09:52;;;;;;;9.35;4.57;;;;;;;18.37;36.22;98518.75;5052008;28;20037;-72
2023/03/09 11:12:44;;;;;;;5.45;3.17;;;;;;;18.71;36.04;98513.75;5051381;28;20025;-74
2023/03/09 11:15:16;;;;;;;12.35;3.22;;;;;;;18.88;35.83;98507.13;5055696;28;20036;-71
2023/03/09 11:17:46;;;;;;;5.20;3.55;;;;;;;19.04;34.31;98500.16;5072637;28;20044;-72
2023/03/09 11:20:15;;;;;;;8.70;3.38;;;;;;;19.33;35.16;98492.25;5072980;28;20028;-72
2023/03/09 11:22:47;;;;;;;8.65;3.33;;;;;;;19.50;34.35;98495.34;5060158;28;20032;-71
2023/03/09 11:25:33;;;;;;;13.80;5.30;;;;;;;19.53;35.02;98471.00;5068159;28;20411;-73
2023/03/09 11:28:05;;;;;;;12.00;4.45;;;;;;;19.66;34.64;98466.41;5054079;28;20036;-72
2023/03/09 11:30:31;;;;;;;5.25;3.42;;;;;;;19.55;35.11;98463.69;5057218;28;20492;-72
2023/03/09 11:32:56;;;;;;;4.70;3.30;;;;;;;19.40;33.50;98465.84;5052541;28;20017;-73